createdAt,value
2018-11-12T00:02:25.503Z,3.70
2018-11-12T00:04:57.207Z,4.13
2018-11-12T00:07:28.582Z,3.77
2018-11-12T00:09:59.793Z,3.70
2018-11-12T00:12:30.968Z,3.53
2018-11-12T00:15:00.947Z,3.70
2018-11-12T00:17:32.162Z,3.80
2018-11-12T00:20:02.114Z,4.30
2018-11-12T00:22:32.466Z,3.50
2018-11-12T00:25:02.707Z,4.40
2018-11-12T00:27:34.001Z,3.77
2018-11-12T00:30:04.361Z,3.90
2018-11-12T00:32:36.399Z,3.80
2018-11-12T00:35:07.393Z,4.17
2018-11-12T00:37:38.391Z,4.10
2018-11-12T00:40:11.421Z,3.80
2018-11-12T00:42:42.861Z,4.20
2018-11-12T00:45:13.457Z,4.63
2018-11-12T00:47:45.024Z,5.10
2018-11-12T00:50:15.595Z,5.40
2018-11-12T00:52:47.824Z,4.83
2018-11-12T00:55:18.764Z,4.80
2018-11-12T00:57:49.616Z,5.33
2018-11-12T01:00:20.816Z,5.10
2018-11-12T01:02:51.957Z,5.20
2018-11-12T01:05:22.421Z,5.60
2018-11-12T01:07:52.883Z,4.83
2018-11-12T01:10:23.962Z,5.60
2018-11-12T01:12:55.523Z,5.70
2018-11-12T01:15:25.659Z,5.13
2018-11-12T01:17:56.903Z,4.63
2018-11-12T01:20:27.476Z,4.63
2018-11-12T01:22:58.937Z,5.87
2018-11-12T01:25:29.282Z,5.03
2018-11-12T01:28:00.356Z,4.70
2018-11-12T01:30:31.040Z,4.87
2018-11-12T01:33:01.638Z,4.70
2018-11-12T01:35:32.245Z,4.73
2018-11-12T01:38:03.450Z,4.37
2018-11-12T01:40:34.966Z,4.70
2018-11-12T01:43:07.169Z,5.00
2018-11-12T01:45:37.549Z,5.27
2018-11-12T01:48:08.449Z,5.33
2018-11-12T01:50:38.745Z,4.87
2018-11-12T01:53:09.807Z,4.90
2018-11-12T01:55:40.044Z,5.70
2018-11-12T01:58:11.492Z,4.80
2018-11-12T02:00:42.100Z,5.50
2018-11-12T02:03:12.917Z,5.60
2018-11-12T02:05:43.600Z,4.90
2018-11-12T02:08:14.101Z,4.60
2018-11-12T02:10:44.396Z,4.80
2018-11-12T02:13:15.444Z,4.40
2018-11-12T02:15:45.921Z,4.80
2018-11-12T02:18:17.191Z,4.43
2018-11-12T02:20:47.645Z,4.63
2018-11-12T02:23:19.232Z,4.30
2018-11-12T02:25:49.777Z,4.60
2018-11-12T02:28:20.455Z,4.53
2018-11-12T02:30:51.525Z,5.77
2018-11-12T02:33:21.831Z,5.57
2018-11-12T02:35:52.052Z,5.37
2018-11-12T02:38:23.243Z,5.23
2018-11-12T02:40:53.413Z,4.80
2018-11-12T02:43:23.662Z,4.87
2018-11-12T02:45:55.108Z,4.73
2018-11-12T02:48:26.445Z,4.57
2018-11-12T02:50:57.066Z,5.00
2018-11-12T02:53:27.842Z,5.57
2018-11-12T02:55:58.650Z,4.53
2018-11-12T02:58:30.041Z,4.47
2018-11-12T03:01:00.223Z,5.70
2018-11-12T03:03:31.044Z,4.50
2018-11-12T03:06:01.124Z,4.80
2018-11-12T03:08:32.189Z,4.13
2018-11-12T03:11:02.656Z,4.80
2018-11-12T03:13:33.330Z,5.50
2018-11-12T03:16:04.367Z,4.33
2018-11-12T03:18:35.257Z,4.53
2018-11-12T03:21:05.720Z,5.60
2018-11-12T03:23:35.942Z,4.90
2018-11-12T03:26:06.396Z,4.20
2018-11-12T03:28:37.832Z,4.63
2018-11-12T03:31:08.095Z,4.70
2018-11-12T03:33:38.383Z,4.37
2018-11-12T03:36:09.194Z,4.30
2018-11-12T03:38:41.230Z,4.40
2018-11-12T03:41:12.126Z,4.53
2018-11-12T03:43:42.581Z,5.03
2018-11-12T03:46:13.477Z,4.70
2018-11-12T03:48:44.344Z,5.03
2018-11-12T03:51:15.092Z,5.00
2018-11-12T03:53:45.431Z,4.20
2018-11-12T03:56:17.156Z,4.90
2018-11-12T03:58:48.798Z,5.40
2018-11-12T04:01:19.549Z,4.47
2018-11-12T04:03:50.405Z,4.53
2018-11-12T04:06:21.039Z,4.37
2018-11-12T04:08:52.196Z,4.70
2018-11-12T04:11:23.052Z,4.47
2018-11-12T04:13:53.585Z,5.13
2018-11-12T04:16:24.669Z,4.33
2018-11-12T04:18:54.796Z,4.90
2018-11-12T04:21:25.140Z,5.00
2018-11-12T04:23:56.065Z,5.17
2018-11-12T04:26:26.609Z,5.50
2018-11-12T04:28:57.906Z,4.97
2018-11-12T04:31:29.483Z,4.50
2018-11-12T04:33:59.769Z,5.50
2018-11-12T04:36:31.678Z,5.67
2018-11-12T04:39:02.310Z,4.30
2018-11-12T04:41:32.433Z,5.80
2018-11-12T04:44:03.270Z,4.50
2018-11-12T04:46:34.440Z,5.20
2018-11-12T04:49:05.611Z,5.23
2018-11-12T04:51:36.224Z,5.30
2018-11-12T04:54:06.896Z,4.80
2018-11-12T04:56:38.059Z,5.17
2018-11-12T04:59:09.117Z,5.30
2018-11-12T05:01:40.221Z,5.33
2018-11-12T05:04:10.865Z,6.10
2018-11-12T05:06:41.622Z,5.20
2018-11-12T05:09:12.888Z,5.73
2018-11-12T05:11:44.071Z,6.10
2018-11-12T05:14:14.973Z,5.30
2018-11-12T05:16:46.430Z,7.07
2018-11-12T05:19:16.470Z,6.83
2018-11-12T05:21:47.106Z,6.27
2018-11-12T05:24:17.545Z,5.90
2018-11-12T05:26:49.947Z,5.50
2018-11-12T05:29:21.230Z,6.07
2018-11-12T05:31:52.699Z,6.00
2018-11-12T05:34:24.052Z,5.20
2018-11-12T05:36:55.686Z,5.70
2018-11-12T05:39:26.301Z,5.60
2018-11-12T05:41:56.974Z,5.37
2018-11-12T05:44:27.305Z,6.37
2018-11-12T05:46:58.641Z,5.77
2018-11-12T05:49:29.164Z,5.97
2018-11-12T05:52:00.704Z,6.17
2018-11-12T05:54:32.096Z,6.00
2018-11-12T05:57:03.192Z,5.40
2018-11-12T05:59:34.512Z,5.10
2018-11-12T06:02:06.088Z,5.50
2018-11-12T06:04:36.796Z,5.50
2018-11-12T06:07:07.281Z,5.47
2018-11-12T06:09:39.111Z,4.60
2018-11-12T06:12:09.598Z,5.40
2018-11-12T06:14:40.358Z,5.13
2018-11-12T06:17:10.751Z,5.27
2018-11-12T06:19:41.209Z,5.10
2018-11-12T06:22:11.568Z,4.50
2018-11-12T06:24:42.566Z,5.20
2018-11-12T06:27:13.353Z,4.90
2018-11-12T06:29:44.231Z,5.80
2018-11-12T06:32:15.932Z,5.37
2018-11-12T06:34:46.676Z,5.33
2018-11-12T06:37:17.621Z,5.77
2018-11-12T06:39:48.608Z,6.40
2018-11-12T06:42:19.387Z,5.90
2018-11-12T06:44:49.444Z,6.23
2018-11-12T06:47:23.985Z,6.13
2018-11-12T06:49:54.645Z,6.10
2018-11-12T06:52:24.561Z,6.50
2018-11-12T06:54:55.859Z,6.33
2018-11-12T06:57:26.958Z,5.53
2018-11-12T06:59:58.607Z,6.43
2018-11-12T07:02:34.569Z,7.27
2018-11-12T07:05:05.490Z,7.87
2018-11-12T07:07:36.891Z,5.40
2018-11-12T07:10:09.589Z,5.70
2018-11-12T07:12:42.472Z,5.43
2018-11-12T07:15:14.593Z,5.87
2018-11-12T07:17:45.473Z,4.93
2018-11-12T07:20:19.135Z,5.70
2018-11-12T07:22:50.153Z,5.77
2018-11-12T07:25:21.210Z,7.17
2018-11-12T07:27:53.695Z,7.00
2018-11-12T07:30:25.208Z,5.90
2018-11-12T07:32:57.777Z,6.17
2018-11-12T07:35:27.834Z,5.83
2018-11-12T07:37:59.211Z,5.37
2018-11-12T07:40:29.958Z,5.20
2018-11-12T07:43:00.458Z,5.50
2018-11-12T07:45:31.148Z,5.80
2018-11-12T07:48:01.821Z,5.20
2018-11-12T07:50:32.376Z,5.93
2018-11-12T07:53:03.680Z,6.20
2018-11-12T07:55:34.013Z,5.80
2018-11-12T07:58:04.712Z,5.27
2018-11-12T08:00:35.486Z,6.00
2018-11-12T08:03:07.739Z,5.53
2018-11-12T08:05:38.405Z,5.80
2018-11-12T08:08:10.531Z,7.03
2018-11-12T08:10:40.676Z,5.27
2018-11-12T08:13:11.770Z,6.20
2018-11-12T08:15:42.060Z,5.87
2018-11-12T08:18:13.614Z,5.53
2018-11-12T08:20:44.555Z,6.10
2018-11-12T08:23:15.108Z,5.83
2018-11-12T08:25:45.490Z,5.53
2018-11-12T08:28:15.194Z,6.77
2018-11-12T08:30:45.912Z,7.43
2018-11-12T08:33:16.921Z,5.80
2018-11-12T08:35:47.869Z,9.90
2018-11-12T08:38:19.515Z,8.47
2018-11-12T08:40:50.424Z,7.00
2018-11-12T08:43:20.904Z,5.90
2018-11-12T08:45:50.926Z,5.97
2018-11-12T08:48:22.348Z,6.33
2018-11-12T08:50:53.183Z,5.53
2018-11-12T08:53:23.301Z,5.63
2018-11-12T08:55:54.016Z,7.37
2018-11-12T08:58:25.320Z,6.80
2018-11-12T09:00:56.285Z,6.60
2018-11-12T09:03:27.696Z,6.83
2018-11-12T09:05:58.148Z,6.13
2018-11-12T09:08:32.536Z,5.77
2018-11-12T09:11:03.179Z,6.23
2018-11-12T09:13:34.172Z,5.67
2018-11-12T09:16:04.700Z,5.40
2018-11-12T09:18:34.592Z,4.70
2018-11-12T09:21:05.138Z,5.00
2018-11-12T09:23:36.188Z,4.57
2018-11-12T09:26:07.665Z,4.77
2018-11-12T09:28:37.316Z,4.40
2018-11-12T09:31:09.887Z,4.00
2018-11-12T09:33:40.020Z,3.70
2018-11-12T09:36:11.127Z,4.33
2018-11-12T09:38:42.425Z,3.60
2018-11-12T09:41:12.859Z,3.77
2018-11-12T09:43:43.119Z,2.87
2018-11-12T09:46:13.396Z,2.90
2018-11-12T09:48:43.802Z,2.50
2018-11-12T09:51:14.185Z,2.77
2018-11-12T09:53:45.066Z,2.00
2018-11-12T09:56:15.301Z,1.97
2018-11-12T09:58:46.669Z,1.97
2018-11-12T10:01:18.041Z,2.90
2018-11-12T10:03:50.952Z,1.97
2018-11-12T10:06:21.675Z,2.80
2018-11-12T10:08:53.140Z,2.10
2018-11-12T10:11:24.068Z,2.50
2018-11-12T10:13:55.253Z,2.47
2018-11-12T10:16:24.235Z,2.87
2018-11-12T10:18:56.448Z,2.20
2018-11-12T10:21:27.241Z,2.77
2018-11-12T10:23:57.637Z,3.63
2018-11-12T10:26:28.995Z,3.77
2018-11-12T10:28:58.878Z,3.40
2018-11-12T10:31:29.157Z,5.00
2018-11-12T10:33:59.941Z,4.70
2018-11-12T10:36:30.771Z,4.80
2018-11-12T10:39:01.718Z,5.00
2018-11-12T10:41:32.286Z,4.83
2018-11-12T10:44:03.144Z,4.77
2018-11-12T10:46:33.837Z,4.80
2018-11-12T10:49:04.463Z,4.30
2018-11-12T10:51:35.050Z,5.10
2018-11-12T10:54:05.354Z,4.20
2018-11-12T10:56:35.831Z,4.57
2018-11-12T10:59:07.539Z,4.40
2018-11-12T11:01:43.096Z,3.67
2018-11-12T11:04:18.947Z,3.73
2018-11-12T11:06:49.167Z,4.00
2018-11-12T11:09:18.983Z,3.17
2018-11-12T11:11:48.945Z,3.53
2018-11-12T11:14:21.245Z,3.40
2018-11-12T11:16:51.851Z,3.00
2018-11-12T11:19:22.632Z,3.20
2018-11-12T11:21:53.415Z,2.30
2018-11-12T11:24:24.545Z,2.77
2018-11-12T11:26:54.826Z,2.60
2018-11-12T11:29:25.043Z,2.53
2018-11-12T11:31:55.573Z,3.17
2018-11-12T11:34:26.926Z,2.63
2018-11-12T11:36:57.603Z,2.50
2018-11-12T11:39:28.830Z,2.87
2018-11-12T11:41:59.291Z,2.77
2018-11-12T11:44:29.237Z,2.70
2018-11-12T11:46:59.468Z,2.50
2018-11-12T11:49:29.854Z,3.13
2018-11-12T11:52:01.535Z,3.30
2018-11-12T11:54:32.265Z,3.23
2018-11-12T11:57:02.373Z,3.20
2018-11-12T11:59:33.232Z,2.90
2018-11-12T12:02:04.281Z,2.90
2018-11-12T12:04:35.152Z,2.87
2018-11-12T12:07:05.717Z,2.67
2018-11-12T12:09:36.094Z,2.77
2018-11-12T12:12:06.557Z,3.33
2018-11-12T12:14:36.958Z,3.20
2018-11-12T12:17:07.678Z,2.93
2018-11-12T12:19:38.724Z,3.00
2018-11-12T12:22:09.095Z,2.70
2018-11-12T12:24:39.757Z,3.27
2018-11-12T12:27:10.793Z,2.63
2018-11-12T12:29:41.487Z,2.60
2018-11-12T12:32:11.891Z,3.03
2018-11-12T12:34:41.618Z,3.23
2018-11-12T12:37:12.953Z,3.50
2018-11-12T12:39:44.310Z,3.30
2018-11-12T12:42:14.500Z,2.80
2018-11-12T12:44:44.592Z,2.87
2018-11-12T12:47:14.853Z,3.80
2018-11-12T12:49:44.793Z,2.93
2018-11-12T12:52:14.931Z,2.73
2018-11-12T12:54:45.713Z,2.60
2018-11-12T12:57:16.183Z,2.60
2018-11-12T12:59:46.810Z,3.40
2018-11-12T13:02:17.981Z,2.90
2018-11-12T13:04:47.989Z,2.73
2018-11-12T13:07:19.597Z,3.53
2018-11-12T13:09:50.795Z,3.80
2018-11-12T13:12:21.988Z,3.10
2018-11-12T13:14:52.353Z,3.33
2018-11-12T13:17:23.469Z,3.23
2018-11-12T13:19:54.064Z,2.90
2018-11-12T13:22:24.636Z,2.00
2018-11-12T13:24:55.403Z,3.03
2018-11-12T13:27:26.484Z,2.50
2018-11-12T13:29:57.681Z,2.90
2018-11-12T13:32:29.266Z,3.10
2018-11-12T13:34:59.910Z,2.30
2018-11-12T13:37:30.337Z,2.80
2018-11-12T13:40:01.561Z,3.17
2018-11-12T13:42:32.504Z,3.10
2018-11-12T13:45:03.112Z,3.10
2018-11-12T13:47:34.335Z,2.67
2018-11-12T13:50:05.306Z,2.70
2018-11-12T13:52:36.120Z,2.70
2018-11-12T13:55:07.703Z,2.63
2018-11-12T13:57:38.758Z,2.80
2018-11-12T14:00:12.577Z,2.47
2018-11-12T14:02:45.056Z,2.87
2018-11-12T14:05:17.155Z,3.10
2018-11-12T14:07:49.175Z,2.57
2018-11-12T14:10:21.369Z,2.87
2018-11-12T14:12:54.592Z,2.63
2018-11-12T14:15:26.274Z,2.33
2018-11-12T14:17:57.849Z,2.53
2018-11-12T14:20:28.624Z,2.60
2018-11-12T14:23:00.154Z,3.03
2018-11-12T14:25:30.699Z,4.90
2018-11-12T14:28:01.718Z,2.73
2018-11-12T14:30:32.072Z,3.00
2018-11-12T14:33:03.586Z,3.17
2018-11-12T14:35:34.454Z,2.47
2018-11-12T14:38:05.536Z,2.87
2018-11-12T14:40:35.932Z,3.40
2018-11-12T14:43:06.949Z,2.80
2018-11-12T14:45:36.990Z,3.03
2018-11-12T14:48:07.492Z,3.33
2018-11-12T14:50:38.445Z,2.63
2018-11-12T14:53:09.887Z,2.87
2018-11-12T14:55:40.337Z,2.80
2018-11-12T14:58:11.471Z,4.03
2018-11-12T15:00:41.908Z,3.20
2018-11-12T15:03:13.440Z,3.10
2018-11-12T15:05:43.752Z,3.43
2018-11-12T15:08:14.450Z,3.30
2018-11-12T15:10:44.478Z,3.60
2018-11-12T15:13:15.506Z,3.27
2018-11-12T15:15:45.934Z,3.30
2018-11-12T15:18:16.297Z,3.10
2018-11-12T15:20:46.600Z,3.50
2018-11-12T15:23:17.435Z,3.07
2018-11-12T15:25:47.595Z,3.07
2018-11-12T15:28:18.465Z,2.80
2018-11-12T15:30:47.855Z,3.13
2018-11-12T15:33:19.665Z,2.40
2018-11-12T15:35:49.835Z,3.27
2018-11-12T15:38:21.090Z,2.90
2018-11-12T15:40:51.806Z,3.67
2018-11-12T15:43:22.951Z,3.10
2018-11-12T15:45:53.090Z,3.07
2018-11-12T15:48:24.404Z,2.83
2018-11-12T15:50:54.789Z,2.60
2018-11-12T15:53:26.261Z,2.70
2018-11-12T15:55:56.579Z,3.13
2018-11-12T15:58:27.299Z,3.63
2018-11-12T16:00:56.918Z,3.10
2018-11-12T16:03:27.141Z,3.47
2018-11-12T16:05:57.327Z,3.30
2018-11-12T16:08:28.235Z,3.20
2018-11-12T16:10:58.361Z,3.07
2018-11-12T16:13:29.555Z,3.37
2018-11-12T16:15:59.885Z,4.80
2018-11-12T16:18:30.357Z,3.90
2018-11-12T16:20:59.851Z,4.07
2018-11-12T16:23:29.357Z,5.03
2018-11-12T16:25:59.305Z,5.90
2018-11-12T16:28:29.641Z,6.13
2018-11-12T16:31:01.466Z,5.57
2018-11-12T16:33:32.957Z,5.37
2018-11-12T16:36:04.014Z,5.70
2018-11-12T16:38:35.444Z,5.00
2018-11-12T16:41:06.019Z,5.07
2018-11-12T16:43:38.108Z,5.80
2018-11-12T16:46:10.008Z,5.67
2018-11-12T16:48:41.934Z,4.63
2018-11-12T16:51:13.220Z,5.13
2018-11-12T16:53:45.741Z,5.60
2018-11-12T16:56:17.643Z,5.33
2018-11-12T16:58:49.987Z,5.03
2018-11-12T17:01:20.218Z,5.70
2018-11-12T17:03:52.425Z,4.93
2018-11-12T17:06:24.576Z,5.63
2018-11-12T17:08:55.956Z,4.80
2018-11-12T17:11:27.408Z,5.13
2018-11-12T17:13:58.915Z,4.90
2018-11-12T17:16:29.797Z,4.47
2018-11-12T17:19:01.666Z,4.77
2018-11-12T17:21:32.550Z,4.30
2018-11-12T17:24:04.159Z,4.20
2018-11-12T17:26:35.120Z,3.70
2018-11-12T17:29:07.047Z,3.63
2018-11-12T17:31:38.661Z,4.73
2018-11-12T17:34:10.426Z,4.27
2018-11-12T17:36:41.344Z,5.60
2018-11-12T17:39:13.003Z,5.30
2018-11-12T17:41:44.262Z,6.90
2018-11-12T17:44:15.388Z,7.63
2018-11-12T17:46:46.192Z,7.13
2018-11-12T17:49:16.928Z,9.17
2018-11-12T17:51:47.118Z,7.37
2018-11-12T17:54:19.542Z,8.30
2018-11-12T17:56:49.102Z,6.87
2018-11-12T17:59:19.902Z,7.27
2018-11-12T18:01:49.831Z,7.00
2018-11-12T18:04:24.141Z,7.70
2018-11-12T18:06:54.896Z,9.13
2018-11-12T18:09:25.530Z,8.03
2018-11-12T18:11:55.385Z,9.13
2018-11-12T18:14:25.321Z,8.10
2018-11-12T18:16:55.044Z,8.40
2018-11-12T18:19:29.263Z,7.13
2018-11-12T18:22:00.152Z,7.67
2018-11-12T18:24:31.245Z,7.73
2018-11-12T18:27:01.569Z,6.90
2018-11-12T18:29:31.650Z,6.77
2018-11-12T18:32:02.307Z,6.93
2018-11-12T18:34:33.452Z,8.33
2018-11-12T18:37:03.321Z,8.60
2018-11-12T18:39:33.994Z,9.07
2018-11-12T18:42:04.168Z,9.90
2018-11-12T18:44:34.846Z,8.57
2018-11-12T18:47:05.273Z,8.97
2018-11-12T18:49:34.774Z,7.77
2018-11-12T18:52:05.266Z,8.03
2018-11-12T18:54:36.253Z,6.30
2018-11-12T18:57:05.866Z,7.10
2018-11-12T18:59:35.463Z,6.13
2018-11-12T19:02:05.702Z,6.90
2018-11-12T19:04:35.794Z,7.27
2018-11-12T19:07:06.213Z,7.67
2018-11-12T19:09:40.503Z,7.07
2018-11-12T19:12:10.977Z,7.00
2018-11-12T19:14:41.932Z,6.87
2018-11-12T19:17:11.964Z,7.53
2018-11-12T19:19:41.690Z,7.73
2018-11-12T19:22:12.812Z,7.17
2018-11-12T19:24:46.818Z,7.23
2018-11-12T19:27:16.562Z,7.30
2018-11-12T19:29:46.345Z,7.17
2018-11-12T19:32:16.872Z,6.53
2018-11-12T19:34:50.859Z,5.93
2018-11-12T19:37:20.797Z,5.17
2018-11-12T19:39:52.107Z,4.43
2018-11-12T19:42:22.484Z,4.70
2018-11-12T19:44:53.080Z,4.50
2018-11-12T19:47:22.803Z,4.60
2018-11-12T19:49:54.829Z,4.50
2018-11-12T19:52:25.423Z,3.70
2018-11-12T19:54:55.799Z,4.63
2018-11-12T19:57:26.660Z,5.10
2018-11-12T19:59:57.643Z,3.80
2018-11-12T20:02:27.371Z,3.80
2018-11-12T20:04:58.361Z,4.30
2018-11-12T20:07:29.157Z,4.03
2018-11-12T20:10:00.106Z,3.97
2018-11-12T20:12:30.485Z,3.73
2018-11-12T20:15:01.271Z,4.10
2018-11-12T20:17:31.470Z,3.60
2018-11-12T20:20:03.092Z,4.63
2018-11-12T20:22:32.847Z,3.23
2018-11-12T20:25:03.782Z,2.90
2018-11-12T20:27:34.042Z,3.60
2018-11-12T20:30:08.468Z,3.10
2018-11-12T20:32:38.872Z,3.33
2018-11-12T20:35:09.333Z,3.33
2018-11-12T20:37:41.062Z,3.80
2018-11-12T20:40:12.836Z,3.67
2018-11-12T20:42:43.839Z,3.73
2018-11-12T20:45:15.149Z,3.30
2018-11-12T20:47:46.810Z,3.93
2018-11-12T20:50:18.202Z,3.30
2018-11-12T20:52:48.075Z,4.10
2018-11-12T20:55:19.166Z,5.07
2018-11-12T20:57:49.956Z,5.77
2018-11-12T21:00:21.979Z,6.70
2018-11-12T21:02:52.899Z,8.30
2018-11-12T21:05:24.940Z,6.40
2018-11-12T21:07:54.955Z,4.73
2018-11-12T21:10:25.487Z,4.30
2018-11-12T21:12:55.837Z,3.90
2018-11-12T21:15:26.291Z,2.60
2018-11-12T21:17:56.746Z,2.80
2018-11-12T21:20:27.651Z,2.83
2018-11-12T21:22:57.569Z,3.27
2018-11-12T21:25:28.191Z,2.53
2018-11-12T21:27:58.365Z,3.10
2018-11-12T21:30:30.193Z,2.60
2018-11-12T21:33:00.627Z,2.80
2018-11-12T21:35:30.829Z,2.50
2018-11-12T21:38:01.047Z,2.77
2018-11-12T21:40:32.612Z,2.87
2018-11-12T21:43:02.816Z,3.83
2018-11-12T21:45:35.075Z,3.43
2018-11-12T21:48:05.298Z,3.00
2018-11-12T21:50:36.760Z,3.27
2018-11-12T21:53:06.866Z,3.73
2018-11-12T21:55:38.377Z,3.63
2018-11-12T21:58:09.248Z,4.00
2018-11-12T22:00:39.742Z,3.40
2018-11-12T22:03:10.256Z,4.00
2018-11-12T22:05:41.059Z,3.37
2018-11-12T22:08:10.686Z,3.80
2018-11-12T22:10:41.159Z,4.00
2018-11-12T22:13:11.065Z,3.50
2018-11-12T22:15:42.115Z,3.70
2018-11-12T22:18:12.108Z,5.20
2018-11-12T22:20:41.803Z,4.90
2018-11-12T22:23:11.997Z,3.60
2018-11-12T22:25:42.617Z,3.47
2018-11-12T22:28:12.860Z,3.87
2018-11-12T22:30:46.223Z,4.50
2018-11-12T22:33:17.065Z,4.87
2018-11-12T22:35:47.879Z,3.80
2018-11-12T22:38:18.807Z,4.60
2018-11-12T22:40:50.645Z,3.70
2018-11-12T22:43:20.659Z,3.77
2018-11-12T22:45:51.667Z,3.40
2018-11-12T22:48:21.832Z,3.83
2018-11-12T22:50:52.208Z,3.10
2018-11-12T22:53:23.003Z,3.67
2018-11-12T22:55:54.496Z,3.20
2018-11-12T22:58:24.651Z,4.00
2018-11-12T23:00:55.758Z,3.60
2018-11-12T23:03:26.703Z,4.30
2018-11-12T23:06:02.622Z,3.13
2018-11-12T23:08:33.940Z,3.97
2018-11-12T23:11:04.469Z,3.60
2018-11-12T23:13:35.091Z,3.60
2018-11-12T23:16:05.988Z,2.97
2018-11-12T23:18:36.038Z,3.00
2018-11-12T23:21:05.812Z,3.60
2018-11-12T23:23:35.912Z,3.20
2018-11-12T23:26:05.756Z,3.53
2018-11-12T23:28:35.413Z,3.20
2018-11-12T23:31:05.576Z,3.40
2018-11-12T23:33:36.631Z,3.40
2018-11-12T23:36:06.830Z,3.60
2018-11-12T23:38:36.578Z,3.60
2018-11-12T23:41:07.160Z,3.23
2018-11-12T23:43:36.734Z,3.40
2018-11-12T23:46:07.316Z,4.70
2018-11-12T23:48:37.166Z,3.90
2018-11-12T23:51:07.318Z,3.57
2018-11-12T23:53:37.298Z,3.57
2018-11-12T23:56:08.342Z,3.33
2018-11-12T23:58:38.768Z,4.03
